sensor_id;sensor_type;location;lat;lon;timestamp;P1;durP1;ratioP1;P2;durP2;ratioP2
7517;SDS011;3800;48.922;9.444;2023-05-10T00:01:32;1.50;;;1.40;;
7517;SDS011;3800;48.922;9.444;2023-05-10T00:04:01;1.60;;;1.50;;
7517;SDS011;3800;48.922;9.444;2023-05-10T00:06:29;1.80;;;1.53;;
7517;SDS011;3800;48.922;9.444;2023-05-10T00:08:58;1.50;;;1.40;;
7517;SDS011;3800;48.922;9.444;2023-05-10T00:11:26;1.87;;;1.60;;
7517;SDS011;3800;48.922;9.444;2023-05-10T00:13:55;1.80;;;1.50;;
7517;SDS011;3800;48.922;9.444;2023-05-10T00:16:23;1.83;;;1.63;;
7517;SDS011;3800;48.922;9.444;2023-05-10T00:18:52;1.63;;;1.53;;
7517;SDS011;3800;48.922;9.444;2023-05-10T00:21:21;1.57;;;1.40;;
7517;SDS011;3800;48.922;9.444;2023-05-10T00:23:49;1.40;;;1.30;;
7517;SDS011;3800;48.922;9.444;2023-05-10T00:26:17;1.30;;;1.20;;
7517;SDS011;3800;48.922;9.444;2023-05-10T00:28:46;2.27;;;1.50;;
7517;SDS011;3800;48.922;9.444;2023-05-10T00:31:14;1.20;;;1.10;;
7517;SDS011;3800;48.922;9.444;2023-05-10T00:33:42;1.20;;;1.10;;
7517;SDS011;3800;48.922;9.444;2023-05-10T00:36:10;4.43;;;1.13;;
7517;SDS011;3800;48.922;9.444;2023-05-10T00:38:39;2.30;;;1.20;;
7517;SDS011;3800;48.922;9.444;2023-05-10T00:41:07;1.50;;;1.10;;
7517;SDS011;3800;48.922;9.444;2023-05-10T00:43:35;1.40;;;1.30;;
7517;SDS011;3800;48.922;9.444;2023-05-10T00:46:04;2.50;;;1.40;;
7517;SDS011;3800;48.922;9.444;2023-05-10T00:48:32;2.73;;;1.30;;
7517;SDS011;3800;48.922;9.444;2023-05-10T00:51:01;1.77;;;1.00;;
7517;SDS011;3800;48.922;9.444;2023-05-10T00:53:31;3.53;;;1.10;;
7517;SDS011;3800;48.922;9.444;2023-05-10T00:55:57;1.00;;;0.90;;
7517;SDS011;3800;48.922;9.444;2023-05-10T00:58:25;1.20;;;1.10;;
7517;SDS011;3800;48.922;9.444;2023-05-10T01:00:54;2.30;;;0.90;;
7517;SDS011;3800;48.922;9.444;2023-05-10T01:03:22;1.73;;;1.10;;
7517;SDS011;3800;48.922;9.444;2023-05-10T01:05:52;2.47;;;1.00;;
7517;SDS011;3800;48.922;9.444;2023-05-10T01:08:21;1.83;;;0.90;;
7517;SDS011;3800;48.922;9.444;2023-05-10T01:10:49;1.93;;;0.90;;
7517;SDS011;3800;48.922;9.444;2023-05-10T01:13:20;1.43;;;0.93;;
7517;SDS011;3800;48.922;9.444;2023-05-10T01:15:50;4.43;;;1.20;;
7517;SDS011;3800;48.922;9.444;2023-05-10T01:18:18;3.53;;;1.10;;
7517;SDS011;3800;48.922;9.444;2023-05-10T01:20:47;1.53;;;1.00;;
7517;SDS011;3800;48.922;9.444;2023-05-10T01:23:21;1.07;;;1.00;;
7517;SDS011;3800;48.922;9.444;2023-05-10T01:31:30;3.30;;;1.30;;
7517;SDS011;3800;48.922;9.444;2023-05-10T01:34:07;1.40;;;1.30;;
7517;SDS011;3800;48.922;9.444;2023-05-10T01:36:41;1.40;;;1.30;;
7517;SDS011;3800;48.922;9.444;2023-05-10T01:39:15;2.23;;;1.10;;
7517;SDS011;3800;48.922;9.444;2023-05-10T01:41:50;1.50;;;1.40;;
7517;SDS011;3800;48.922;9.444;2023-05-10T01:44:56;1.60;;;1.50;;
7517;SDS011;3800;48.922;9.444;2023-05-10T01:47:07;1.70;;;1.50;;
7517;SDS011;3800;48.922;9.444;2023-05-10T01:49:36;1.80;;;1.70;;
7517;SDS011;3800;48.922;9.444;2023-05-10T01:52:08;1.67;;;1.57;;
7517;SDS011;3800;48.922;9.444;2023-05-10T01:54:37;1.60;;;1.50;;
7517;SDS011;3800;48.922;9.444;2023-05-10T01:57:05;4.50;;;1.60;;
7517;SDS011;3800;48.922;9.444;2023-05-10T01:59:34;2.50;;;1.63;;
7517;SDS011;3800;48.922;9.444;2023-05-10T02:02:04;1.50;;;1.40;;
7517;SDS011;3800;48.922;9.444;2023-05-10T02:04:32;1.70;;;1.60;;
7517;SDS011;3800;48.922;9.444;2023-05-10T02:07:00;1.57;;;1.47;;
7517;SDS011;3800;48.922;9.444;2023-05-10T02:09:28;2.47;;;1.60;;
7517;SDS011;3800;48.922;9.444;2023-05-10T02:11:58;1.63;;;1.53;;
7517;SDS011;3800;48.922;9.444;2023-05-10T02:14:26;2.00;;;1.80;;
7517;SDS011;3800;48.922;9.444;2023-05-10T02:16:55;1.80;;;1.70;;
7517;SDS011;3800;48.922;9.444;2023-05-10T02:19:23;2.00;;;1.90;;
7517;SDS011;3800;48.922;9.444;2023-05-10T02:21:52;2.47;;;2.27;;
7517;SDS011;3800;48.922;9.444;2023-05-10T02:24:20;2.40;;;2.20;;
7517;SDS011;3800;48.922;9.444;2023-05-10T02:26:49;2.20;;;2.00;;
7517;SDS011;3800;48.922;9.444;2023-05-10T02:29:18;2.60;;;2.40;;
7517;SDS011;3800;48.922;9.444;2023-05-10T02:31:47;2.37;;;2.17;;
7517;SDS011;3800;48.922;9.444;2023-05-10T02:34:15;3.60;;;2.23;;
7517;SDS011;3800;48.922;9.444;2023-05-10T02:36:44;3.83;;;2.40;;
7517;SDS011;3800;48.922;9.444;2023-05-10T02:39:12;2.40;;;2.13;;
7517;SDS011;3800;48.922;9.444;2023-05-10T02:41:41;3.90;;;2.40;;
7517;SDS011;3800;48.922;9.444;2023-05-10T02:44:09;2.50;;;2.30;;
7517;SDS011;3800;48.922;9.444;2023-05-10T02:46:37;2.50;;;2.30;;
7517;SDS011;3800;48.922;9.444;2023-05-10T02:49:05;2.87;;;2.40;;
7517;SDS011;3800;48.922;9.444;2023-05-10T02:51:34;2.63;;;2.30;;
7517;SDS011;3800;48.922;9.444;2023-05-10T02:54:34;2.67;;;2.47;;
7517;SDS011;3800;48.922;9.444;2023-05-10T02:56:47;2.50;;;2.30;;
7517;SDS011;3800;48.922;9.444;2023-05-10T02:59:15;4.00;;;2.60;;
7517;SDS011;3800;48.922;9.444;2023-05-10T03:01:44;3.07;;;2.20;;
7517;SDS011;3800;48.922;9.444;2023-05-10T03:04:12;2.30;;;2.10;;
7517;SDS011;3800;48.922;9.444;2023-05-10T03:06:41;2.13;;;2.03;;
7517;SDS011;3800;48.922;9.444;2023-05-10T03:09:09;2.83;;;2.10;;
7517;SDS011;3800;48.922;9.444;2023-05-10T03:11:43;2.80;;;2.20;;
7517;SDS011;3800;48.922;9.444;2023-05-10T03:14:34;2.83;;;2.20;;
7517;SDS011;3800;48.922;9.444;2023-05-10T03:17:19;2.43;;;2.17;;
7517;SDS011;3800;48.922;9.444;2023-05-10T03:19:52;2.60;;;2.40;;
7517;SDS011;3800;48.922;9.444;2023-05-10T03:22:20;2.80;;;2.60;;
7517;SDS011;3800;48.922;9.444;2023-05-10T03:24:45;3.90;;;2.30;;
7517;SDS011;3800;48.922;9.444;2023-05-10T03:27:13;2.53;;;2.27;;
7517;SDS011;3800;48.922;9.444;2023-05-10T03:29:42;2.57;;;2.10;;
7517;SDS011;3800;48.922;9.444;2023-05-10T03:32:10;2.53;;;2.33;;
7517;SDS011;3800;48.922;9.444;2023-05-10T03:34:41;2.50;;;2.30;;
7517;SDS011;3800;48.922;9.444;2023-05-10T03:37:09;3.37;;;2.17;;
7517;SDS011;3800;48.922;9.444;2023-05-10T03:39:37;2.70;;;2.50;;
7517;SDS011;3800;48.922;9.444;2023-05-10T03:42:05;3.27;;;2.77;;
7517;SDS011;3800;48.922;9.444;2023-05-10T03:44:34;2.80;;;2.60;;
7517;SDS011;3800;48.922;9.444;2023-05-10T03:47:02;3.00;;;2.80;;
7517;SDS011;3800;48.922;9.444;2023-05-10T03:49:30;3.30;;;2.80;;
7517;SDS011;3800;48.922;9.444;2023-05-10T03:51:59;3.17;;;2.87;;
7517;SDS011;3800;48.922;9.444;2023-05-10T03:54:27;3.53;;;2.80;;
7517;SDS011;3800;48.922;9.444;2023-05-10T03:56:56;3.63;;;3.30;;
7517;SDS011;3800;48.922;9.444;2023-05-10T03:59:25;4.03;;;3.03;;
7517;SDS011;3800;48.922;9.444;2023-05-10T04:01:53;4.20;;;2.60;;
7517;SDS011;3800;48.922;9.444;2023-05-10T04:04:21;3.50;;;2.93;;
7517;SDS011;3800;48.922;9.444;2023-05-10T04:06:50;3.10;;;2.90;;
7517;SDS011;3800;48.922;9.444;2023-05-10T04:09:18;5.47;;;3.23;;
7517;SDS011;3800;48.922;9.444;2023-05-10T04:11:46;4.00;;;3.13;;
7517;SDS011;3800;48.922;9.444;2023-05-10T04:14:14;3.80;;;3.50;;
7517;SDS011;3800;48.922;9.444;2023-05-10T04:16:43;3.73;;;3.43;;
7517;SDS011;3800;48.922;9.444;2023-05-10T04:19:11;5.50;;;4.10;;
7517;SDS011;3800;48.922;9.444;2023-05-10T04:21:39;3.93;;;3.63;;
7517;SDS011;3800;48.922;9.444;2023-05-10T04:24:08;4.17;;;3.87;;
7517;SDS011;3800;48.922;9.444;2023-05-10T04:26:36;4.20;;;3.90;;
7517;SDS011;3800;48.922;9.444;2023-05-10T04:29:05;3.93;;;3.63;;
7517;SDS011;3800;48.922;9.444;2023-05-10T04:31:33;5.27;;;3.90;;
7517;SDS011;3800;48.922;9.444;2023-05-10T04:34:01;4.13;;;3.83;;
7517;SDS011;3800;48.922;9.444;2023-05-10T04:36:29;4.83;;;4.20;;
7517;SDS011;3800;48.922;9.444;2023-05-10T04:38:58;5.00;;;4.50;;
7517;SDS011;3800;48.922;9.444;2023-05-10T04:41:26;5.07;;;4.00;;
7517;SDS011;3800;48.922;9.444;2023-05-10T04:43:54;6.80;;;4.20;;
7517;SDS011;3800;48.922;9.444;2023-05-10T04:46:22;5.23;;;4.13;;
7517;SDS011;3800;48.922;9.444;2023-05-10T04:48:51;4.93;;;4.53;;
7517;SDS011;3800;48.922;9.444;2023-05-10T04:51:20;4.97;;;4.40;;
7517;SDS011;3800;48.922;9.444;2023-05-10T04:53:48;4.80;;;4.40;;
7517;SDS011;3800;48.922;9.444;2023-05-10T04:56:16;5.23;;;4.73;;
7517;SDS011;3800;48.922;9.444;2023-05-10T04:58:44;4.60;;;4.13;;
7517;SDS011;3800;48.922;9.444;2023-05-10T05:01:13;4.97;;;4.57;;
7517;SDS011;3800;48.922;9.444;2023-05-10T05:03:41;5.07;;;4.67;;
7517;SDS011;3800;48.922;9.444;2023-05-10T05:06:09;5.20;;;4.70;;
7517;SDS011;3800;48.922;9.444;2023-05-10T05:08:38;5.37;;;4.87;;
7517;SDS011;3800;48.922;9.444;2023-05-10T05:11:07;5.67;;;5.17;;
7517;SDS011;3800;48.922;9.444;2023-05-10T05:13:35;5.93;;;5.20;;
7517;SDS011;3800;48.922;9.444;2023-05-10T05:16:03;4.80;;;4.40;;
7517;SDS011;3800;48.922;9.444;2023-05-10T05:18:32;6.03;;;5.00;;
7517;SDS011;3800;48.922;9.444;2023-05-10T05:21:01;4.30;;;4.00;;
7517;SDS011;3800;48.922;9.444;2023-05-10T05:23:29;5.07;;;4.60;;
7517;SDS011;3800;48.922;9.444;2023-05-10T05:25:58;4.13;;;3.83;;
7517;SDS011;3800;48.922;9.444;2023-05-10T05:28:26;4.43;;;3.93;;
7517;SDS011;3800;48.922;9.444;2023-05-10T05:30:54;6.53;;;3.70;;
7517;SDS011;3800;48.922;9.444;2023-05-10T05:33:22;5.23;;;4.00;;
7517;SDS011;3800;48.922;9.444;2023-05-10T05:35:51;4.00;;;3.60;;
7517;SDS011;3800;48.922;9.444;2023-05-10T05:38:20;4.70;;;4.20;;
7517;SDS011;3800;48.922;9.444;2023-05-10T05:40:48;4.10;;;3.80;;
7517;SDS011;3800;48.922;9.444;2023-05-10T05:43:16;4.90;;;4.50;;
7517;SDS011;3800;48.922;9.444;2023-05-10T05:45:44;4.80;;;4.40;;
7517;SDS011;3800;48.922;9.444;2023-05-10T05:48:13;4.43;;;4.03;;
7517;SDS011;3800;48.922;9.444;2023-05-10T05:50:41;4.47;;;4.07;;
7517;SDS011;3800;48.922;9.444;2023-05-10T05:53:09;5.97;;;4.60;;
7517;SDS011;3800;48.922;9.444;2023-05-10T05:55:37;4.93;;;4.37;;
7517;SDS011;3800;48.922;9.444;2023-05-10T05:58:06;5.30;;;4.60;;
7517;SDS011;3800;48.922;9.444;2023-05-10T06:00:34;4.60;;;4.20;;
7517;SDS011;3800;48.922;9.444;2023-05-10T06:03:02;4.27;;;3.90;;
7517;SDS011;3800;48.922;9.444;2023-05-10T06:05:31;5.07;;;4.23;;
7517;SDS011;3800;48.922;9.444;2023-05-10T06:07:59;4.70;;;4.03;;
7517;SDS011;3800;48.922;9.444;2023-05-10T06:10:28;4.70;;;4.30;;
7517;SDS011;3800;48.922;9.444;2023-05-10T06:12:57;5.07;;;4.50;;
7517;SDS011;3800;48.922;9.444;2023-05-10T06:15:26;4.90;;;4.50;;
7517;SDS011;3800;48.922;9.444;2023-05-10T06:17:54;5.00;;;4.20;;
7517;SDS011;3800;48.922;9.444;2023-05-10T06:20:23;4.97;;;4.43;;
7517;SDS011;3800;48.922;9.444;2023-05-10T06:22:51;4.80;;;4.40;;
7517;SDS011;3800;48.922;9.444;2023-05-10T06:25:20;5.47;;;4.20;;
7517;SDS011;3800;48.922;9.444;2023-05-10T06:27:49;6.07;;;4.47;;
7517;SDS011;3800;48.922;9.444;2023-05-10T06:30:17;4.87;;;4.33;;
7517;SDS011;3800;48.922;9.444;2023-05-10T06:32:45;5.43;;;4.93;;
7517;SDS011;3800;48.922;9.444;2023-05-10T06:35:13;5.50;;;4.90;;
7517;SDS011;3800;48.922;9.444;2023-05-10T06:37:42;5.17;;;4.73;;
7517;SDS011;3800;48.922;9.444;2023-05-10T06:40:10;5.40;;;4.90;;
7517;SDS011;3800;48.922;9.444;2023-05-10T06:42:39;6.10;;;5.50;;
7517;SDS011;3800;48.922;9.444;2023-05-10T06:45:07;5.03;;;4.60;;
7517;SDS011;3800;48.922;9.444;2023-05-10T06:47:36;4.90;;;4.50;;
7517;SDS011;3800;48.922;9.444;2023-05-10T06:50:05;5.17;;;4.53;;
7517;SDS011;3800;48.922;9.444;2023-05-10T06:52:34;5.43;;;4.40;;
7517;SDS011;3800;48.922;9.444;2023-05-10T06:55:02;4.97;;;4.27;;
7517;SDS011;3800;48.922;9.444;2023-05-10T06:57:31;4.43;;;4.03;;
7517;SDS011;3800;48.922;9.444;2023-05-10T06:59:59;4.20;;;3.80;;
7517;SDS011;3800;48.922;9.444;2023-05-10T07:02:27;4.40;;;4.00;;
7517;SDS011;3800;48.922;9.444;2023-05-10T07:04:55;5.13;;;3.90;;
7517;SDS011;3800;48.922;9.444;2023-05-10T07:07:24;4.70;;;3.93;;
7517;SDS011;3800;48.922;9.444;2023-05-10T07:09:52;4.60;;;4.17;;
7517;SDS011;3800;48.922;9.444;2023-05-10T07:12:21;5.87;;;4.10;;
7517;SDS011;3800;48.922;9.444;2023-05-10T07:14:50;4.23;;;3.83;;
7517;SDS011;3800;48.922;9.444;2023-05-10T07:17:19;5.60;;;4.03;;
7517;SDS011;3800;48.922;9.444;2023-05-10T07:19:47;6.77;;;3.70;;
7517;SDS011;3800;48.922;9.444;2023-05-10T07:22:16;4.63;;;3.90;;
7517;SDS011;3800;48.922;9.444;2023-05-10T07:24:44;4.00;;;3.60;;
7517;SDS011;3800;48.922;9.444;2023-05-10T07:27:13;4.07;;;3.67;;
7517;SDS011;3800;48.922;9.444;2023-05-10T07:29:42;4.13;;;3.80;;
7517;SDS011;3800;48.922;9.444;2023-05-10T07:32:11;5.27;;;3.90;;
7517;SDS011;3800;48.922;9.444;2023-05-10T07:34:39;4.10;;;3.53;;
7517;SDS011;3800;48.922;9.444;2023-05-10T07:37:08;3.60;;;3.30;;
7517;SDS011;3800;48.922;9.444;2023-05-10T07:39:36;5.57;;;3.43;;
7517;SDS011;3800;48.922;9.444;2023-05-10T07:42:04;3.67;;;3.37;;
7517;SDS011;3800;48.922;9.444;2023-05-10T07:44:33;5.43;;;3.40;;
7517;SDS011;3800;48.922;9.444;2023-05-10T07:47:01;4.30;;;3.90;;
7517;SDS011;3800;48.922;9.444;2023-05-10T07:49:30;4.63;;;3.30;;
7517;SDS011;3800;48.922;9.444;2023-05-10T07:51:58;3.60;;;3.30;;
7517;SDS011;3800;48.922;9.444;2023-05-10T07:54:27;3.30;;;3.00;;
7517;SDS011;3800;48.922;9.444;2023-05-10T07:56:55;3.73;;;3.00;;
7517;SDS011;3800;48.922;9.444;2023-05-10T07:59:24;3.83;;;2.70;;
7517;SDS011;3800;48.922;9.444;2023-05-10T08:01:53;3.60;;;2.97;;
7517;SDS011;3800;48.922;9.444;2023-05-10T08:04:22;3.27;;;2.80;;
7517;SDS011;3800;48.922;9.444;2023-05-10T08:06:50;3.17;;;2.87;;
7517;SDS011;3800;48.922;9.444;2023-05-10T08:09:18;4.53;;;3.20;;
7517;SDS011;3800;48.922;9.444;2023-05-10T08:11:46;4.77;;;3.17;;
7517;SDS011;3800;48.922;9.444;2023-05-10T08:14:15;3.53;;;2.80;;
7517;SDS011;3800;48.922;9.444;2023-05-10T08:16:43;4.43;;;2.70;;
7517;SDS011;3800;48.922;9.444;2023-05-10T08:19:11;2.70;;;2.50;;
7517;SDS011;3800;48.922;9.444;2023-05-10T08:21:40;3.30;;;2.33;;
7517;SDS011;3800;48.922;9.444;2023-05-10T08:24:08;2.50;;;2.30;;
7517;SDS011;3800;48.922;9.444;2023-05-10T08:26:36;3.57;;;2.37;;
7517;SDS011;3800;48.922;9.444;2023-05-10T08:29:04;3.30;;;2.50;;
7517;SDS011;3800;48.922;9.444;2023-05-10T08:31:33;2.30;;;2.10;;
7517;SDS011;3800;48.922;9.444;2023-05-10T08:34:01;3.70;;;2.20;;
7517;SDS011;3800;48.922;9.444;2023-05-10T08:36:29;2.77;;;2.00;;
7517;SDS011;3800;48.922;9.444;2023-05-10T08:38:58;4.87;;;2.30;;
7517;SDS011;3800;48.922;9.444;2023-05-10T08:41:26;3.67;;;1.90;;
7517;SDS011;3800;48.922;9.444;2023-05-10T08:43:54;3.90;;;2.20;;
7517;SDS011;3800;48.922;9.444;2023-05-10T08:46:22;2.87;;;1.90;;
7517;SDS011;3800;48.922;9.444;2023-05-10T08:48:51;3.20;;;2.43;;
7517;SDS011;3800;48.922;9.444;2023-05-10T08:51:21;3.10;;;1.87;;
7517;SDS011;3800;48.922;9.444;2023-05-10T08:53:47;4.73;;;1.67;;
7517;SDS011;3800;48.922;9.444;2023-05-10T08:56:15;1.37;;;1.27;;
7517;SDS011;3800;48.922;9.444;2023-05-10T08:58:44;1.93;;;1.13;;
7517;SDS011;3800;48.922;9.444;2023-05-10T09:01:13;2.50;;;1.10;;
7517;SDS011;3800;48.922;9.444;2023-05-10T09:03:41;2.80;;;1.07;;
7517;SDS011;3800;48.922;9.444;2023-05-10T09:06:09;1.80;;;1.00;;
7517;SDS011;3800;48.922;9.444;2023-05-10T09:08:37;4.07;;;1.23;;
7517;SDS011;3800;48.922;9.444;2023-05-10T09:11:06;1.73;;;1.10;;
7517;SDS011;3800;48.922;9.444;2023-05-10T09:13:34;3.20;;;1.10;;
7517;SDS011;3800;48.922;9.444;2023-05-10T09:16:02;1.20;;;1.10;;
7517;SDS011;3800;48.922;9.444;2023-05-10T09:18:31;3.60;;;1.30;;
7517;SDS011;3800;48.922;9.444;2023-05-10T09:20:59;1.17;;;1.07;;
7517;SDS011;3800;48.922;9.444;2023-05-10T09:23:27;2.47;;;1.10;;
7517;SDS011;3800;48.922;9.444;2023-05-10T09:28:33;1.40;;;1.07;;
7517;SDS011;3800;48.922;9.444;2023-05-10T09:31:01;1.47;;;1.23;;
7517;SDS011;3800;48.922;9.444;2023-05-10T09:33:30;1.00;;;0.90;;
7517;SDS011;3800;48.922;9.444;2023-05-10T09:36:05;1.20;;;1.00;;
7517;SDS011;3800;48.922;9.444;2023-05-10T09:38:26;3.53;;;1.40;;
7517;SDS011;3800;48.922;9.444;2023-05-10T09:40:54;1.40;;;1.30;;
7517;SDS011;3800;48.922;9.444;2023-05-10T09:43:23;1.00;;;0.90;;
7517;SDS011;3800;48.922;9.444;2023-05-10T09:45:51;1.50;;;1.10;;
7517;SDS011;3800;48.922;9.444;2023-05-10T09:48:21;2.20;;;1.03;;
7517;SDS011;3800;48.922;9.444;2023-05-10T09:50:55;3.03;;;1.07;;
7517;SDS011;3800;48.922;9.444;2023-05-10T09:53:16;2.67;;;1.13;;
7517;SDS011;3800;48.922;9.444;2023-05-10T09:55:45;0.93;;;0.90;;
7517;SDS011;3800;48.922;9.444;2023-05-10T09:58:14;3.40;;;0.90;;
7517;SDS011;3800;48.922;9.444;2023-05-10T10:00:43;2.07;;;1.00;;
7517;SDS011;3800;48.922;9.444;2023-05-10T10:03:13;3.13;;;1.10;;
7517;SDS011;3800;48.922;9.444;2023-05-10T10:05:41;1.10;;;1.00;;
7517;SDS011;3800;48.922;9.444;2023-05-10T10:08:09;1.10;;;1.00;;
7517;SDS011;3800;48.922;9.444;2023-05-10T10:10:37;2.63;;;1.30;;
7517;SDS011;3800;48.922;9.444;2023-05-10T10:13:06;1.30;;;1.10;;
7517;SDS011;3800;48.922;9.444;2023-05-10T10:15:34;1.20;;;1.10;;
7517;SDS011;3800;48.922;9.444;2023-05-10T10:18:02;1.30;;;1.20;;
7517;SDS011;3800;48.922;9.444;2023-05-10T10:20:32;4.60;;;1.10;;
7517;SDS011;3800;48.922;9.444;2023-05-10T10:23:00;3.00;;;1.10;;
7517;SDS011;3800;48.922;9.444;2023-05-10T10:25:28;1.93;;;1.00;;
7517;SDS011;3800;48.922;9.444;2023-05-10T10:28:03;2.37;;;1.20;;
7517;SDS011;3800;48.922;9.444;2023-05-10T10:30:39;2.33;;;1.10;;
7517;SDS011;3800;48.922;9.444;2023-05-10T10:36:08;1.20;;;1.10;;
7517;SDS011;3800;48.922;9.444;2023-05-10T10:38:38;1.60;;;1.30;;
7517;SDS011;3800;48.922;9.444;2023-05-10T10:41:09;2.23;;;1.40;;
7517;SDS011;3800;48.922;9.444;2023-05-10T10:43:38;1.40;;;1.17;;
7517;SDS011;3800;48.922;9.444;2023-05-10T10:46:11;1.60;;;1.20;;
7517;SDS011;3800;48.922;9.444;2023-05-10T10:48:41;2.83;;;1.30;;
7517;SDS011;3800;48.922;9.444;2023-05-10T10:51:08;2.97;;;1.30;;
7517;SDS011;3800;48.922;9.444;2023-05-10T10:53:37;2.63;;;1.00;;
7517;SDS011;3800;48.922;9.444;2023-05-10T10:56:07;1.60;;;1.20;;
7517;SDS011;3800;48.922;9.444;2023-05-10T10:58:37;1.47;;;1.00;;
7517;SDS011;3800;48.922;9.444;2023-05-10T11:01:10;2.27;;;1.13;;
7517;SDS011;3800;48.922;9.444;2023-05-10T11:03:41;1.53;;;0.97;;
7517;SDS011;3800;48.922;9.444;2023-05-10T11:06:09;1.90;;;1.00;;
7517;SDS011;3800;48.922;9.444;2023-05-10T11:08:41;1.13;;;0.90;;
7517;SDS011;3800;48.922;9.444;2023-05-10T11:11:12;1.23;;;1.13;;
7517;SDS011;3800;48.922;9.444;2023-05-10T11:13:41;1.43;;;0.90;;
7517;SDS011;3800;48.922;9.444;2023-05-10T11:16:12;2.30;;;1.10;;
7517;SDS011;3800;48.922;9.444;2023-05-10T11:18:51;2.67;;;0.90;;
7517;SDS011;3800;48.922;9.444;2023-05-10T11:21:15;2.87;;;1.00;;
7517;SDS011;3800;48.922;9.444;2023-05-10T11:23:51;2.00;;;1.10;;
7517;SDS011;3800;48.922;9.444;2023-05-10T11:26:19;2.03;;;1.10;;
7517;SDS011;3800;48.922;9.444;2023-05-10T11:28:48;1.70;;;1.23;;
7517;SDS011;3800;48.922;9.444;2023-05-10T11:31:16;1.27;;;1.00;;
7517;SDS011;3800;48.922;9.444;2023-05-10T11:33:44;3.53;;;1.30;;
7517;SDS011;3800;48.922;9.444;2023-05-10T11:36:15;3.10;;;1.40;;
7517;SDS011;3800;48.922;9.444;2023-05-10T11:38:42;1.70;;;1.00;;
7517;SDS011;3800;48.922;9.444;2023-05-10T11:41:11;1.00;;;0.90;;
7517;SDS011;3800;48.922;9.444;2023-05-10T11:43:39;1.40;;;1.07;;
7517;SDS011;3800;48.922;9.444;2023-05-10T11:46:10;2.20;;;1.00;;
7517;SDS011;3800;48.922;9.444;2023-05-10T11:48:38;2.67;;;1.00;;
7517;SDS011;3800;48.922;9.444;2023-05-10T11:51:06;1.90;;;1.40;;
7517;SDS011;3800;48.922;9.444;2023-05-10T11:53:35;1.33;;;0.90;;
7517;SDS011;3800;48.922;9.444;2023-05-10T11:56:08;2.30;;;1.10;;
7517;SDS011;3800;48.922;9.444;2023-05-10T11:58:36;2.37;;;1.30;;
7517;SDS011;3800;48.922;9.444;2023-05-10T12:01:04;1.13;;;1.00;;
7517;SDS011;3800;48.922;9.444;2023-05-10T12:03:32;4.03;;;1.20;;
7517;SDS011;3800;48.922;9.444;2023-05-10T12:06:01;3.40;;;1.93;;
7517;SDS011;3800;48.922;9.444;2023-05-10T12:08:30;2.23;;;1.20;;
7517;SDS011;3800;48.922;9.444;2023-05-10T12:11:04;1.60;;;1.20;;
7517;SDS011;3800;48.922;9.444;2023-05-10T12:13:32;3.90;;;1.40;;
7517;SDS011;3800;48.922;9.444;2023-05-10T12:16:00;1.60;;;1.20;;
7517;SDS011;3800;48.922;9.444;2023-05-10T12:18:28;2.40;;;1.10;;
7517;SDS011;3800;48.922;9.444;2023-05-10T12:21:02;2.80;;;1.40;;
7517;SDS011;3800;48.922;9.444;2023-05-10T12:23:25;1.73;;;1.20;;
7517;SDS011;3800;48.922;9.444;2023-05-10T12:25:53;3.07;;;1.30;;
7517;SDS011;3800;48.922;9.444;2023-05-10T12:28:21;1.97;;;1.47;;
7517;SDS011;3800;48.922;9.444;2023-05-10T12:30:50;5.17;;;1.83;;
7517;SDS011;3800;48.922;9.444;2023-05-10T12:33:19;3.90;;;1.50;;
7517;SDS011;3800;48.922;9.444;2023-05-10T12:35:48;1.90;;;1.23;;
7517;SDS011;3800;48.922;9.444;2023-05-10T12:40:59;2.03;;;1.30;;
7517;SDS011;3800;48.922;9.444;2023-05-10T12:43:27;3.10;;;1.20;;
7517;SDS011;3800;48.922;9.444;2023-05-10T12:45:56;2.33;;;1.43;;
7517;SDS011;3800;48.922;9.444;2023-05-10T12:48:24;3.37;;;1.80;;
7517;SDS011;3800;48.922;9.444;2023-05-10T12:50:53;3.00;;;2.13;;
7517;SDS011;3800;48.922;9.444;2023-05-10T12:53:21;6.03;;;1.83;;
7517;SDS011;3800;48.922;9.444;2023-05-10T12:55:50;1.60;;;1.47;;
7517;SDS011;3800;48.922;9.444;2023-05-10T12:58:18;3.20;;;2.03;;
7517;SDS011;3800;48.922;9.444;2023-05-10T13:00:46;2.43;;;1.80;;
7517;SDS011;3800;48.922;9.444;2023-05-10T13:03:14;3.97;;;1.80;;
7517;SDS011;3800;48.922;9.444;2023-05-10T13:05:43;2.70;;;1.80;;
7517;SDS011;3800;48.922;9.444;2023-05-10T13:08:12;2.57;;;1.80;;
7517;SDS011;3800;48.922;9.444;2023-05-10T13:10:41;4.03;;;1.50;;
7517;SDS011;3800;48.922;9.444;2023-05-10T13:13:09;2.27;;;1.40;;
7517;SDS011;3800;48.922;9.444;2023-05-10T13:15:37;2.83;;;1.10;;
7517;SDS011;3800;48.922;9.444;2023-05-10T13:18:06;1.87;;;1.30;;
7517;SDS011;3800;48.922;9.444;2023-05-10T13:20:34;2.50;;;1.33;;
7517;SDS011;3800;48.922;9.444;2023-05-10T13:23:02;1.97;;;1.33;;
7517;SDS011;3800;48.922;9.444;2023-05-10T13:25:30;4.90;;;1.53;;
7517;SDS011;3800;48.922;9.444;2023-05-10T13:27:59;2.30;;;1.30;;
7517;SDS011;3800;48.922;9.444;2023-05-10T13:30:27;3.13;;;1.40;;
7517;SDS011;3800;48.922;9.444;2023-05-10T13:32:55;2.80;;;1.60;;
7517;SDS011;3800;48.922;9.444;2023-05-10T13:35:23;3.50;;;1.27;;
7517;SDS011;3800;48.922;9.444;2023-05-10T13:37:52;3.27;;;1.40;;
7517;SDS011;3800;48.922;9.444;2023-05-10T13:40:20;2.00;;;1.50;;
7517;SDS011;3800;48.922;9.444;2023-05-10T13:42:48;1.80;;;1.10;;
7517;SDS011;3800;48.922;9.444;2023-05-10T13:45:16;2.97;;;1.43;;
7517;SDS011;3800;48.922;9.444;2023-05-10T13:47:45;2.00;;;1.10;;
7517;SDS011;3800;48.922;9.444;2023-05-10T13:50:14;2.53;;;1.30;;
7517;SDS011;3800;48.922;9.444;2023-05-10T13:52:42;2.07;;;1.17;;
7517;SDS011;3800;48.922;9.444;2023-05-10T13:55:12;3.00;;;1.00;;
7517;SDS011;3800;48.922;9.444;2023-05-10T13:57:39;1.40;;;1.17;;
7517;SDS011;3800;48.922;9.444;2023-05-10T14:00:08;2.50;;;1.20;;
7517;SDS011;3800;48.922;9.444;2023-05-10T14:02:37;1.93;;;1.00;;
7517;SDS011;3800;48.922;9.444;2023-05-10T14:05:05;2.53;;;1.23;;
7517;SDS011;3800;48.922;9.444;2023-05-10T14:07:34;2.50;;;1.17;;
7517;SDS011;3800;48.922;9.444;2023-05-10T14:10:02;3.20;;;1.40;;
7517;SDS011;3800;48.922;9.444;2023-05-10T14:12:31;1.83;;;1.20;;
7517;SDS011;3800;48.922;9.444;2023-05-10T14:14:59;3.13;;;1.20;;
7517;SDS011;3800;48.922;9.444;2023-05-10T14:17:28;3.60;;;1.20;;
7517;SDS011;3800;48.922;9.444;2023-05-10T14:19:56;2.57;;;1.20;;
7517;SDS011;3800;48.922;9.444;2023-05-10T14:22:25;5.03;;;1.23;;
7517;SDS011;3800;48.922;9.444;2023-05-10T14:24:53;1.57;;;1.00;;
7517;SDS011;3800;48.922;9.444;2023-05-10T14:27:22;5.20;;;1.30;;
7517;SDS011;3800;48.922;9.444;2023-05-10T14:29:50;2.57;;;1.10;;
7517;SDS011;3800;48.922;9.444;2023-05-10T14:32:18;3.23;;;1.10;;
7517;SDS011;3800;48.922;9.444;2023-05-10T14:34:47;3.23;;;1.30;;
7517;SDS011;3800;48.922;9.444;2023-05-10T14:37:15;3.50;;;1.30;;
7517;SDS011;3800;48.922;9.444;2023-05-10T14:39:43;2.40;;;1.10;;
7517;SDS011;3800;48.922;9.444;2023-05-10T14:42:11;4.63;;;1.30;;
7517;SDS011;3800;48.922;9.444;2023-05-10T14:44:40;3.03;;;1.30;;
7517;SDS011;3800;48.922;9.444;2023-05-10T14:47:08;1.77;;;1.00;;
7517;SDS011;3800;48.922;9.444;2023-05-10T14:49:36;1.30;;;1.10;;
7517;SDS011;3800;48.922;9.444;2023-05-10T14:52:05;4.23;;;1.37;;
7517;SDS011;3800;48.922;9.444;2023-05-10T14:54:33;1.80;;;1.20;;
7517;SDS011;3800;48.922;9.444;2023-05-10T14:57:01;1.83;;;1.30;;
7517;SDS011;3800;48.922;9.444;2023-05-10T14:59:29;2.43;;;1.20;;
7517;SDS011;3800;48.922;9.444;2023-05-10T15:01:58;2.63;;;1.50;;
7517;SDS011;3800;48.922;9.444;2023-05-10T15:04:26;1.17;;;1.00;;
7517;SDS011;3800;48.922;9.444;2023-05-10T15:06:54;2.60;;;1.30;;
7517;SDS011;3800;48.922;9.444;2023-05-10T15:09:22;2.00;;;1.30;;
7517;SDS011;3800;48.922;9.444;2023-05-10T15:11:51;2.60;;;1.30;;
7517;SDS011;3800;48.922;9.444;2023-05-10T15:14:20;1.50;;;1.17;;
7517;SDS011;3800;48.922;9.444;2023-05-10T15:16:49;2.23;;;1.30;;
7517;SDS011;3800;48.922;9.444;2023-05-10T15:19:17;1.60;;;1.30;;
7517;SDS011;3800;48.922;9.444;2023-05-10T15:21:46;4.17;;;1.30;;
7517;SDS011;3800;48.922;9.444;2023-05-10T15:24:15;2.23;;;1.20;;
7517;SDS011;3800;48.922;9.444;2023-05-10T15:26:43;1.57;;;1.10;;
7517;SDS011;3800;48.922;9.444;2023-05-10T15:29:12;2.27;;;1.40;;
7517;SDS011;3800;48.922;9.444;2023-05-10T15:31:47;1.60;;;1.30;;
7517;SDS011;3800;48.922;9.444;2023-05-10T15:34:15;3.13;;;1.20;;
7517;SDS011;3800;48.922;9.444;2023-05-10T15:36:44;2.23;;;1.27;;
7517;SDS011;3800;48.922;9.444;2023-05-10T15:39:11;1.80;;;1.30;;